sensor_id;sensor_type;location;lat;lon;timestamp;pressure;altitude;pressure_sealevel;temperature;humidity
21574;BME280;10948;48.706;9.258;2022-08-11T00:01:23;98186.81;;;20.14;59.94
21574;BME280;10948;48.706;9.258;2022-08-11T00:03:52;98184.88;;;19.87;59.80
21574;BME280;10948;48.706;9.258;2022-08-11T00:06:51;98179.03;;;19.74;60.34
21574;BME280;10948;48.706;9.258;2022-08-11T00:09:11;98182.50;;;19.94;60.34
21574;BME280;10948;48.706;9.258;2022-08-11T00:11:38;98182.34;;;19.76;60.97
21574;BME280;10948;48.706;9.258;2022-08-11T00:14:11;98189.00;;;19.52;61.32
21574;BME280;10948;48.706;9.258;2022-08-11T00:16:36;98182.28;;;19.38;62.25
21574;BME280;10948;48.706;9.258;2022-08-11T00:19:03;98185.69;;;19.78;61.44
21574;BME280;10948;48.706;9.258;2022-08-11T00:21:29;98181.91;;;19.62;61.13
21574;BME280;10948;48.706;9.258;2022-08-11T00:23:59;98174.84;;;19.81;60.92
21574;BME280;10948;48.706;9.258;2022-08-11T00:26:25;98169.28;;;19.84;60.54
21574;BME280;10948;48.706;9.258;2022-08-11T00:28:50;98177.75;;;19.78;60.12
21574;BME280;10948;48.706;9.258;2022-08-11T00:31:24;98175.94;;;19.69;61.12
21574;BME280;10948;48.706;9.258;2022-08-11T00:33:50;98188.47;;;19.58;61.64
21574;BME280;10948;48.706;9.258;2022-08-11T00:36:17;98181.44;;;19.28;61.14
21574;BME280;10948;48.706;9.258;2022-08-11T00:38:43;98182.22;;;19.19;62.36
21574;BME280;10948;48.706;9.258;2022-08-11T00:43:46;98190.09;;;19.00;62.31
21574;BME280;10948;48.706;9.258;2022-08-11T00:57:20;98191.75;;;19.01;63.01
21574;BME280;10948;48.706;9.258;2022-08-11T01:00:02;98186.63;;;19.09;62.44
21574;BME280;10948;48.706;9.258;2022-08-11T01:29:23;98185.25;;;18.75;63.88
21574;BME280;10948;48.706;9.258;2022-08-11T01:32:43;98178.50;;;18.32;64.77
21574;BME280;10948;48.706;9.258;2022-08-11T01:46:21;98173.06;;;18.13;67.35
21574;BME280;10948;48.706;9.258;2022-08-11T01:58:48;98159.31;;;18.30;65.41
21574;BME280;10948;48.706;9.258;2022-08-11T02:09:49;98164.41;;;18.01;66.30
21574;BME280;10948;48.706;9.258;2022-08-11T02:15:02;98156.81;;;18.28;65.27
21574;BME280;10948;48.706;9.258;2022-08-11T02:20:21;98159.56;;;18.27;65.94
21574;BME280;10948;48.706;9.258;2022-08-11T02:23:12;98154.09;;;17.98;66.80
21574;BME280;10948;48.706;9.258;2022-08-11T02:26:01;98153.72;;;18.23;66.02
21574;BME280;10948;48.706;9.258;2022-08-11T02:33:44;98153.22;;;17.88;65.92
21574;BME280;10948;48.706;9.258;2022-08-11T02:36:16;98146.66;;;18.03;65.68
21574;BME280;10948;48.706;9.258;2022-08-11T02:38:50;98146.06;;;17.59;66.07
21574;BME280;10948;48.706;9.258;2022-08-11T02:41:23;98143.91;;;17.53;66.92
21574;BME280;10948;48.706;9.258;2022-08-11T02:44:11;98141.59;;;17.59;66.82
21574;BME280;10948;48.706;9.258;2022-08-11T02:49:43;98147.03;;;17.78;66.59
21574;BME280;10948;48.706;9.258;2022-08-11T02:52:35;98150.38;;;17.80;66.78
21574;BME280;10948;48.706;9.258;2022-08-11T02:57:35;98154.94;;;17.47;68.58
21574;BME280;10948;48.706;9.258;2022-08-11T03:10:12;98156.72;;;17.46;68.87
21574;BME280;10948;48.706;9.258;2022-08-11T03:15:40;98150.22;;;17.61;68.18
21574;BME280;10948;48.706;9.258;2022-08-11T03:18:32;98154.81;;;17.48;67.89
21574;BME280;10948;48.706;9.258;2022-08-11T03:21:05;98152.13;;;17.59;67.72
21574;BME280;10948;48.706;9.258;2022-08-11T03:26:01;98155.19;;;17.33;68.66
21574;BME280;10948;48.706;9.258;2022-08-11T03:28:35;98155.09;;;17.23;68.52
21574;BME280;10948;48.706;9.258;2022-08-11T03:31:15;98157.72;;;17.34;69.33
21574;BME280;10948;48.706;9.258;2022-08-11T03:34:05;98157.91;;;17.53;67.95
21574;BME280;10948;48.706;9.258;2022-08-11T03:41:37;98163.19;;;17.31;67.92
21574;BME280;10948;48.706;9.258;2022-08-11T03:44:17;98168.59;;;17.30;67.19
21574;BME280;10948;48.706;9.258;2022-08-11T03:46:55;98173.66;;;17.00;67.50
21574;BME280;10948;48.706;9.258;2022-08-11T03:52:15;98163.00;;;17.12;68.19
21574;BME280;10948;48.706;9.258;2022-08-11T04:05:35;98171.16;;;16.98;68.85
21574;BME280;10948;48.706;9.258;2022-08-11T04:08:14;98175.00;;;16.73;69.32
21574;BME280;10948;48.706;9.258;2022-08-11T04:15:49;98170.69;;;16.72;69.30
21574;BME280;10948;48.706;9.258;2022-08-11T04:21:07;98166.84;;;16.87;70.00
21574;BME280;10948;48.706;9.258;2022-08-11T04:23:55;98174.28;;;16.60;70.83
21574;BME280;10948;48.706;9.258;2022-08-11T04:31:48;98161.59;;;17.08;70.46
21574;BME280;10948;48.706;9.258;2022-08-11T04:45:39;98169.34;;;17.10;69.43
21574;BME280;10948;48.706;9.258;2022-08-11T04:57:07;98168.41;;;17.64;68.47
21574;BME280;10948;48.706;9.258;2022-08-11T05:00:03;98175.03;;;17.79;68.74
21574;BME280;10948;48.706;9.258;2022-08-11T05:13:31;98174.66;;;18.04;68.16
21574;BME280;10948;48.706;9.258;2022-08-11T05:19:19;98178.91;;;18.57;68.18
21574;BME280;10948;48.706;9.258;2022-08-11T05:22:09;98181.63;;;18.46;67.81
21574;BME280;10948;48.706;9.258;2022-08-11T05:24:56;98171.97;;;18.56;68.12
21574;BME280;10948;48.706;9.258;2022-08-11T05:27:44;98172.69;;;18.88;68.66
21574;BME280;10948;48.706;9.258;2022-08-11T05:30:32;98174.13;;;19.11;68.00
21574;BME280;10948;48.706;9.258;2022-08-11T05:33:20;98178.19;;;19.15;67.32
21574;BME280;10948;48.706;9.258;2022-08-11T05:38:53;98170.22;;;19.45;66.75
21574;BME280;10948;48.706;9.258;2022-08-11T05:41:38;98175.41;;;19.66;67.31
21574;BME280;10948;48.706;9.258;2022-08-11T05:44:23;98164.53;;;19.78;67.46
21574;BME280;10948;48.706;9.258;2022-08-11T05:47:09;98172.91;;;20.02;66.78
21574;BME280;10948;48.706;9.258;2022-08-11T05:49:54;98173.47;;;20.15;65.24
21574;BME280;10948;48.706;9.258;2022-08-11T05:52:38;98176.47;;;20.39;64.07
21574;BME280;10948;48.706;9.258;2022-08-11T05:55:22;98173.09;;;20.56;63.36
21574;BME280;10948;48.706;9.258;2022-08-11T05:58:07;98174.72;;;20.76;61.54
21574;BME280;10948;48.706;9.258;2022-08-11T06:00:42;98175.53;;;20.86;60.36
21574;BME280;10948;48.706;9.258;2022-08-11T06:03:10;98175.75;;;21.02;59.70
21574;BME280;10948;48.706;9.258;2022-08-11T06:05:37;98162.59;;;21.10;58.63
21574;BME280;10948;48.706;9.258;2022-08-11T06:08:04;98170.38;;;21.21;58.38
21574;BME280;10948;48.706;9.258;2022-08-11T06:10:31;98169.78;;;21.27;57.91
21574;BME280;10948;48.706;9.258;2022-08-11T06:12:57;98166.31;;;21.44;57.71
21574;BME280;10948;48.706;9.258;2022-08-11T06:15:25;98168.88;;;21.54;56.92
21574;BME280;10948;48.706;9.258;2022-08-11T06:17:51;98168.16;;;21.61;57.19
21574;BME280;10948;48.706;9.258;2022-08-11T06:20:18;98169.72;;;21.81;56.23
21574;BME280;10948;48.706;9.258;2022-08-11T06:22:44;98167.59;;;21.67;56.43
21574;BME280;10948;48.706;9.258;2022-08-11T06:25:11;98170.09;;;21.86;55.82
21574;BME280;10948;48.706;9.258;2022-08-11T06:27:37;98173.94;;;22.09;55.27
21574;BME280;10948;48.706;9.258;2022-08-11T06:30:04;98175.81;;;22.17;54.98
21574;BME280;10948;48.706;9.258;2022-08-11T06:32:43;98168.06;;;22.23;54.42
21574;BME280;10948;48.706;9.258;2022-08-11T06:35:10;98170.38;;;22.01;54.75
21574;BME280;10948;48.706;9.258;2022-08-11T06:37:43;98172.81;;;22.37;54.17
21574;BME280;10948;48.706;9.258;2022-08-11T06:40:20;98172.22;;;22.43;53.79
21574;BME280;10948;48.706;9.258;2022-08-11T06:42:57;98169.34;;;22.54;52.95
21574;BME280;10948;48.706;9.258;2022-08-11T06:45:36;98168.81;;;22.51;52.51
21574;BME280;10948;48.706;9.258;2022-08-11T06:48:04;98176.34;;;22.63;52.59
21574;BME280;10948;48.706;9.258;2022-08-11T06:50:34;98169.94;;;22.74;52.34
21574;BME280;10948;48.706;9.258;2022-08-11T06:53:18;98169.81;;;22.83;53.28
21574;BME280;10948;48.706;9.258;2022-08-11T06:55:44;98173.09;;;23.03;52.29
21574;BME280;10948;48.706;9.258;2022-08-11T06:58:30;98172.25;;;23.02;51.81
21574;BME280;10948;48.706;9.258;2022-08-11T07:01:15;98169.91;;;22.99;51.55
21574;BME280;10948;48.706;9.258;2022-08-11T07:03:44;98178.06;;;23.06;50.95
21574;BME280;10948;48.706;9.258;2022-08-11T07:06:23;98173.69;;;23.22;51.01
21574;BME280;10948;48.706;9.258;2022-08-11T07:14:50;98173.94;;;23.45;50.13
21574;BME280;10948;48.706;9.258;2022-08-11T07:17:37;98168.50;;;23.62;50.52
21574;BME280;10948;48.706;9.258;2022-08-11T07:20:05;98167.84;;;23.68;49.81
21574;BME280;10948;48.706;9.258;2022-08-11T07:23:04;98163.91;;;23.88;49.86
21574;BME280;10948;48.706;9.258;2022-08-11T07:25:51;98159.94;;;24.08;49.15
21574;BME280;10948;48.706;9.258;2022-08-11T07:28:38;98167.25;;;24.06;48.87
21574;BME280;10948;48.706;9.258;2022-08-11T07:31:28;98162.94;;;24.13;48.31
21574;BME280;10948;48.706;9.258;2022-08-11T07:36:32;98160.75;;;24.56;48.74
21574;BME280;10948;48.706;9.258;2022-08-11T07:38:59;98149.09;;;24.65;48.67
21574;BME280;10948;48.706;9.258;2022-08-11T07:41:25;98152.72;;;24.72;47.86
21574;BME280;10948;48.706;9.258;2022-08-11T07:43:54;98158.00;;;24.96;46.85
21574;BME280;10948;48.706;9.258;2022-08-11T07:46:19;98146.16;;;24.91;47.23
21574;BME280;10948;48.706;9.258;2022-08-11T07:49:04;98145.59;;;25.11;47.36
21574;BME280;10948;48.706;9.258;2022-08-11T07:51:50;98148.53;;;25.32;46.44
21574;BME280;10948;48.706;9.258;2022-08-11T07:54:35;98142.59;;;25.14;46.60
21574;BME280;10948;48.706;9.258;2022-08-11T07:57:02;98145.81;;;25.40;45.91
21574;BME280;10948;48.706;9.258;2022-08-11T07:59:47;98144.16;;;25.39;46.15
21574;BME280;10948;48.706;9.258;2022-08-11T08:02:31;98136.19;;;25.62;45.40
21574;BME280;10948;48.706;9.258;2022-08-11T08:05:15;98138.97;;;25.46;45.73
21574;BME280;10948;48.706;9.258;2022-08-11T08:08:00;98145.78;;;25.79;45.11
21574;BME280;10948;48.706;9.258;2022-08-11T08:10:44;98144.13;;;26.00;44.75
21574;BME280;10948;48.706;9.258;2022-08-11T08:13:30;98139.34;;;26.33;44.39
21574;BME280;10948;48.706;9.258;2022-08-11T08:16:15;98141.34;;;26.68;43.71
21574;BME280;10948;48.706;9.258;2022-08-11T08:18:59;98145.88;;;26.82;43.08
21574;BME280;10948;48.706;9.258;2022-08-11T08:21:24;98134.19;;;26.97;43.12
21574;BME280;10948;48.706;9.258;2022-08-11T08:23:50;98141.50;;;27.18;43.12
21574;BME280;10948;48.706;9.258;2022-08-11T08:26:15;98134.25;;;27.33;43.21
21574;BME280;10948;48.706;9.258;2022-08-11T08:29:01;98139.63;;;27.68;41.80
21574;BME280;10948;48.706;9.258;2022-08-11T08:31:46;98130.41;;;27.92;40.63
21574;BME280;10948;48.706;9.258;2022-08-11T08:34:13;98129.66;;;27.98;40.57
21574;BME280;10948;48.706;9.258;2022-08-11T08:36:47;98141.22;;;27.84;41.69
21574;BME280;10948;48.706;9.258;2022-08-11T08:39:13;98145.25;;;28.15;40.82
21574;BME280;10948;48.706;9.258;2022-08-11T08:41:38;98146.72;;;28.18;40.07
21574;BME280;10948;48.706;9.258;2022-08-11T08:44:08;98144.53;;;28.28;39.92
21574;BME280;10948;48.706;9.258;2022-08-11T08:46:38;98130.34;;;28.55;39.86
21574;BME280;10948;48.706;9.258;2022-08-11T08:49:05;98135.72;;;28.89;39.82
21574;BME280;10948;48.706;9.258;2022-08-11T08:51:31;98141.63;;;29.05;39.02
21574;BME280;10948;48.706;9.258;2022-08-11T08:54:19;98135.25;;;29.53;40.25
21574;BME280;10948;48.706;9.258;2022-08-11T08:56:45;98134.19;;;29.41;38.45
21574;BME280;10948;48.706;9.258;2022-08-11T08:59:13;98128.81;;;29.48;38.43
21574;BME280;10948;48.706;9.258;2022-08-11T09:01:45;98132.78;;;29.52;37.80
21574;BME280;10948;48.706;9.258;2022-08-11T09:04:11;98134.94;;;29.89;36.96
21574;BME280;10948;48.706;9.258;2022-08-11T09:06:38;98135.28;;;29.60;38.35
21574;BME280;10948;48.706;9.258;2022-08-11T09:09:04;98133.38;;;29.47;38.32
21574;BME280;10948;48.706;9.258;2022-08-11T09:11:33;98136.59;;;29.90;37.41
21574;BME280;10948;48.706;9.258;2022-08-11T09:14:14;98133.47;;;29.86;36.15
21574;BME280;10948;48.706;9.258;2022-08-11T09:16:40;98133.75;;;30.63;35.74
21574;BME280;10948;48.706;9.258;2022-08-11T09:19:06;98129.25;;;30.70;35.66
21574;BME280;10948;48.706;9.258;2022-08-11T09:21:31;98130.88;;;30.45;35.40
21574;BME280;10948;48.706;9.258;2022-08-11T09:24:49;98134.81;;;33.11;32.23
21574;BME280;10948;48.706;9.258;2022-08-11T09:27:33;98135.59;;;34.42;30.23
21574;BME280;10948;48.706;9.258;2022-08-11T09:29:59;98139.50;;;33.40;32.22
21574;BME280;10948;48.706;9.258;2022-08-11T09:32:24;98133.75;;;35.51;30.40
21574;BME280;10948;48.706;9.258;2022-08-11T09:34:52;98124.94;;;38.28;28.01
21574;BME280;10948;48.706;9.258;2022-08-11T09:37:18;98125.69;;;37.49;27.79
21574;BME280;10948;48.706;9.258;2022-08-11T09:40:03;98139.81;;;35.30;29.38
21574;BME280;10948;48.706;9.258;2022-08-11T09:42:48;98128.44;;;33.59;31.45
21574;BME280;10948;48.706;9.258;2022-08-11T09:45:34;98130.13;;;32.08;32.50
21574;BME280;10948;48.706;9.258;2022-08-11T09:48:01;98128.81;;;33.63;30.73
21574;BME280;10948;48.706;9.258;2022-08-11T09:50:29;98116.81;;;36.00;29.29
21574;BME280;10948;48.706;9.258;2022-08-11T09:52:55;98124.44;;;32.23;31.27
21574;BME280;10948;48.706;9.258;2022-08-11T09:55:21;98127.13;;;32.96;31.31
21574;BME280;10948;48.706;9.258;2022-08-11T09:57:46;98127.19;;;33.91;29.44
21574;BME280;10948;48.706;9.258;2022-08-11T10:00:34;98129.13;;;32.58;30.83
21574;BME280;10948;48.706;9.258;2022-08-11T10:03:12;98124.78;;;35.62;28.59
21574;BME280;10948;48.706;9.258;2022-08-11T10:05:42;98122.88;;;34.54;29.98
21574;BME280;10948;48.706;9.258;2022-08-11T10:08:27;98126.44;;;32.34;31.28
21574;BME280;10948;48.706;9.258;2022-08-11T10:10:54;98124.63;;;33.96;30.40
21574;BME280;10948;48.706;9.258;2022-08-11T10:13:20;98117.59;;;35.05;29.07
21574;BME280;10948;48.706;9.258;2022-08-11T10:15:46;98123.94;;;32.81;30.62
21574;BME280;10948;48.706;9.258;2022-08-11T10:18:13;98119.63;;;34.75;29.27
21574;BME280;10948;48.706;9.258;2022-08-11T10:20:59;98125.69;;;34.36;29.33
21574;BME280;10948;48.706;9.258;2022-08-11T10:23:25;98121.88;;;32.83;30.45
21574;BME280;10948;48.706;9.258;2022-08-11T10:26:10;98122.13;;;35.67;27.32
21574;BME280;10948;48.706;9.258;2022-08-11T10:28:55;98129.03;;;33.79;29.15
21574;BME280;10948;48.706;9.258;2022-08-11T10:31:20;98113.69;;;34.44;28.39
21574;BME280;10948;48.706;9.258;2022-08-11T10:34:05;98100.75;;;34.34;28.07
21574;BME280;10948;48.706;9.258;2022-08-11T10:36:37;98105.94;;;33.65;29.27
21574;BME280;10948;48.706;9.258;2022-08-11T10:39:14;98108.16;;;33.86;29.48
21574;BME280;10948;48.706;9.258;2022-08-11T10:41:41;98104.25;;;33.35;28.97
21574;BME280;10948;48.706;9.258;2022-08-11T10:44:26;98093.28;;;32.76;30.00
21574;BME280;10948;48.706;9.258;2022-08-11T10:46:52;98088.25;;;33.15;28.73
21574;BME280;10948;48.706;9.258;2022-08-11T10:49:35;98096.16;;;34.58;29.16
21574;BME280;10948;48.706;9.258;2022-08-11T10:52:01;98093.00;;;33.02;30.36
21574;BME280;10948;48.706;9.258;2022-08-11T10:54:45;98092.28;;;36.07;27.45
21574;BME280;10948;48.706;9.258;2022-08-11T10:57:30;98090.84;;;33.10;30.19
21574;BME280;10948;48.706;9.258;2022-08-11T11:00:14;98069.16;;;37.25;26.10
21574;BME280;10948;48.706;9.258;2022-08-11T11:02:40;98065.69;;;38.35;25.12
21574;BME280;10948;48.706;9.258;2022-08-11T11:07:43;98074.19;;;34.31;28.65
21574;BME280;10948;48.706;9.258;2022-08-11T11:10:11;98070.56;;;33.19;28.46
21574;BME280;10948;48.706;9.258;2022-08-11T11:12:42;98073.38;;;34.54;28.20
21574;BME280;10948;48.706;9.258;2022-08-11T11:15:27;98079.56;;;35.00;27.12
21574;BME280;10948;48.706;9.258;2022-08-11T11:18:28;98078.25;;;31.88;30.33
21574;BME280;10948;48.706;9.258;2022-08-11T11:21:10;98064.63;;;34.17;28.92
21574;BME280;10948;48.706;9.258;2022-08-11T11:32:03;98058.38;;;34.05;29.55
21574;BME280;10948;48.706;9.258;2022-08-11T11:37:34;98040.00;;;37.20;26.60
21574;BME280;10948;48.706;9.258;2022-08-11T11:40:00;98059.31;;;32.68;28.64
21574;BME280;10948;48.706;9.258;2022-08-11T11:42:28;98046.13;;;33.32;28.19
21574;BME280;10948;48.706;9.258;2022-08-11T11:44:54;98051.28;;;31.27;30.95
21574;BME280;10948;48.706;9.258;2022-08-11T11:47:19;98036.59;;;32.82;29.00
21574;BME280;10948;48.706;9.258;2022-08-11T11:49:47;98031.31;;;33.05;29.23
21574;BME280;10948;48.706;9.258;2022-08-11T11:52:17;98026.53;;;34.19;27.29
21574;BME280;10948;48.706;9.258;2022-08-11T11:54:46;98026.66;;;33.30;28.24
21574;BME280;10948;48.706;9.258;2022-08-11T11:57:15;98029.97;;;32.96;28.74
21574;BME280;10948;48.706;9.258;2022-08-11T12:00:00;98025.03;;;34.34;28.24
21574;BME280;10948;48.706;9.258;2022-08-11T12:02:44;98021.34;;;34.86;27.10
21574;BME280;10948;48.706;9.258;2022-08-11T12:05:09;98020.31;;;34.64;27.48
21574;BME280;10948;48.706;9.258;2022-08-11T12:07:35;98021.84;;;33.73;28.85
21574;BME280;10948;48.706;9.258;2022-08-11T12:10:20;98021.84;;;33.14;28.07
21574;BME280;10948;48.706;9.258;2022-08-11T12:12:45;98021.78;;;33.50;28.81
21574;BME280;10948;48.706;9.258;2022-08-11T12:15:29;98019.47;;;33.95;27.90
21574;BME280;10948;48.706;9.258;2022-08-11T12:17:55;98007.66;;;32.89;28.82
21574;BME280;10948;48.706;9.258;2022-08-11T12:20:21;98008.50;;;32.47;29.20
21574;BME280;10948;48.706;9.258;2022-08-11T12:22:47;98024.91;;;32.21;29.90
21574;BME280;10948;48.706;9.258;2022-08-11T12:25:31;98016.94;;;31.16;30.47
21574;BME280;10948;48.706;9.258;2022-08-11T12:28:17;98018.03;;;31.46;29.79
21574;BME280;10948;48.706;9.258;2022-08-11T12:30:43;98012.91;;;31.99;29.93
21574;BME280;10948;48.706;9.258;2022-08-11T12:33:11;98004.50;;;31.89;30.07
21574;BME280;10948;48.706;9.258;2022-08-11T12:35:37;98003.13;;;32.47;29.29
21574;BME280;10948;48.706;9.258;2022-08-11T12:38:03;98011.56;;;31.16;29.76
21574;BME280;10948;48.706;9.258;2022-08-11T12:40:30;97996.09;;;32.46;29.68
21574;BME280;10948;48.706;9.258;2022-08-11T12:43:17;98001.53;;;32.15;29.83
21574;BME280;10948;48.706;9.258;2022-08-11T12:46:03;97997.31;;;30.65;30.11
21574;BME280;10948;48.706;9.258;2022-08-11T12:48:30;97997.13;;;32.99;28.51
21574;BME280;10948;48.706;9.258;2022-08-11T12:51:18;97988.88;;;32.94;28.00
21574;BME280;10948;48.706;9.258;2022-08-11T12:56:31;97986.03;;;31.93;29.77
21574;BME280;10948;48.706;9.258;2022-08-11T12:59:20;97978.03;;;31.18;30.65
21574;BME280;10948;48.706;9.258;2022-08-11T13:02:04;97972.44;;;32.84;28.97
21574;BME280;10948;48.706;9.258;2022-08-11T13:04:48;97980.25;;;31.28;29.67
21574;BME280;10948;48.706;9.258;2022-08-11T13:07:23;97970.59;;;31.20;30.33
21574;BME280;10948;48.706;9.258;2022-08-11T13:09:49;97971.16;;;31.29;29.79
21574;BME280;10948;48.706;9.258;2022-08-11T13:12:15;97957.34;;;32.23;28.90
21574;BME280;10948;48.706;9.258;2022-08-11T13:14:59;97960.09;;;31.67;29.69
21574;BME280;10948;48.706;9.258;2022-08-11T13:17:25;97950.38;;;31.66;29.20
21574;BME280;10948;48.706;9.258;2022-08-11T13:19:53;97954.47;;;31.75;29.70
21574;BME280;10948;48.706;9.258;2022-08-11T13:22:20;97958.16;;;31.81;29.92
21574;BME280;10948;48.706;9.258;2022-08-11T13:24:46;97962.00;;;31.60;29.99
21574;BME280;10948;48.706;9.258;2022-08-11T13:27:14;97970.94;;;30.03;31.21
21574;BME280;10948;48.706;9.258;2022-08-11T13:29:41;97949.34;;;32.34;29.42
21574;BME280;10948;48.706;9.258;2022-08-11T13:32:10;97942.97;;;31.86;29.70
21574;BME280;10948;48.706;9.258;2022-08-11T13:34:36;97953.63;;;30.63;30.40
21574;BME280;10948;48.706;9.258;2022-08-11T13:37:05;97957.50;;;30.86;29.79
21574;BME280;10948;48.706;9.258;2022-08-11T13:39:32;97954.22;;;31.52;30.05
21574;BME280;10948;48.706;9.258;2022-08-11T13:41:59;97950.72;;;31.15;29.90
21574;BME280;10948;48.706;9.258;2022-08-11T13:44:26;97952.97;;;30.10;30.51
21574;BME280;10948;48.706;9.258;2022-08-11T13:46:53;97955.44;;;30.88;30.56
21574;BME280;10948;48.706;9.258;2022-08-11T13:49:21;97945.47;;;30.45;30.13
21574;BME280;10948;48.706;9.258;2022-08-11T13:51:47;97941.22;;;31.19;30.13
21574;BME280;10948;48.706;9.258;2022-08-11T13:54:20;97926.34;;;31.72;29.28
21574;BME280;10948;48.706;9.258;2022-08-11T13:56:47;97927.84;;;30.49;30.89
21574;BME280;10948;48.706;9.258;2022-08-11T13:59:17;97927.59;;;29.87;30.74
21574;BME280;10948;48.706;9.258;2022-08-11T14:01:46;97919.38;;;30.96;30.78
21574;BME280;10948;48.706;9.258;2022-08-11T14:04:24;97921.75;;;31.17;29.75
21574;BME280;10948;48.706;9.258;2022-08-11T14:06:51;97913.47;;;31.73;30.08
21574;BME280;10948;48.706;9.258;2022-08-11T14:09:21;97914.59;;;30.60;30.40
21574;BME280;10948;48.706;9.258;2022-08-11T14:11:49;97909.69;;;30.51;30.95
21574;BME280;10948;48.706;9.258;2022-08-11T14:14:33;97902.47;;;30.89;30.63
21574;BME280;10948;48.706;9.258;2022-08-11T14:17:04;97913.66;;;30.86;30.15
21574;BME280;10948;48.706;9.258;2022-08-11T14:19:31;97898.66;;;30.65;30.35
21574;BME280;10948;48.706;9.258;2022-08-11T14:22:00;97897.19;;;31.38;30.15
21574;BME280;10948;48.706;9.258;2022-08-11T14:24:33;97911.50;;;31.01;30.93
21574;BME280;10948;48.706;9.258;2022-08-11T14:26:59;97900.06;;;30.24;30.13
21574;BME280;10948;48.706;9.258;2022-08-11T14:29:26;97901.38;;;29.76;31.60
21574;BME280;10948;48.706;9.258;2022-08-11T14:31:55;97902.81;;;29.85;31.67
21574;BME280;10948;48.706;9.258;2022-08-11T14:34:25;97904.84;;;29.83;32.07
21574;BME280;10948;48.706;9.258;2022-08-11T14:36:53;97915.00;;;29.55;32.29
21574;BME280;10948;48.706;9.258;2022-08-11T14:39:26;97900.28;;;30.22;31.87
21574;BME280;10948;48.706;9.258;2022-08-11T14:41:55;97913.53;;;29.46;31.96
21574;BME280;10948;48.706;9.258;2022-08-11T14:44:42;97892.84;;;30.05;31.23
21574;BME280;10948;48.706;9.258;2022-08-11T14:47:26;97897.41;;;29.98;31.26
21574;BME280;10948;48.706;9.258;2022-08-11T14:49:52;97902.19;;;29.70;32.11
21574;BME280;10948;48.706;9.258;2022-08-11T14:52:19;97887.06;;;30.08;31.19
21574;BME280;10948;48.706;9.258;2022-08-11T14:54:48;97886.16;;;30.40;30.56
21574;BME280;10948;48.706;9.258;2022-08-11T14:57:35;97877.59;;;29.79;31.84
21574;BME280;10948;48.706;9.258;2022-08-11T15:00:00;97887.13;;;29.88;31.48
21574;BME280;10948;48.706;9.258;2022-08-11T15:02:27;97883.00;;;29.73;30.84
21574;BME280;10948;48.706;9.258;2022-08-11T15:05:11;97879.91;;;29.63;30.77
21574;BME280;10948;48.706;9.258;2022-08-11T15:07:37;97879.06;;;29.82;32.07
21574;BME280;10948;48.706;9.258;2022-08-11T15:10:04;97874.75;;;29.74;31.19
21574;BME280;10948;48.706;9.258;2022-08-11T15:12:31;97863.41;;;30.36;30.85
21574;BME280;10948;48.706;9.258;2022-08-11T15:14:57;97866.59;;;30.07;30.90
21574;BME280;10948;48.706;9.258;2022-08-11T15:17:41;97865.22;;;29.78;31.33
21574;BME280;10948;48.706;9.258;2022-08-11T15:20:12;97859.44;;;29.75;32.02
21574;BME280;10948;48.706;9.258;2022-08-11T15:22:57;97855.75;;;30.39;30.96
21574;BME280;10948;48.706;9.258;2022-08-11T15:25:42;97855.34;;;29.66;31.68
21574;BME280;10948;48.706;9.258;2022-08-11T15:28:07;97853.72;;;29.65;31.84
21574;BME280;10948;48.706;9.258;2022-08-11T15:30:54;97856.59;;;29.63;31.57
21574;BME280;10948;48.706;9.258;2022-08-11T15:33:39;97855.28;;;29.92;30.84
21574;BME280;10948;48.706;9.258;2022-08-11T15:36:26;97855.25;;;30.05;29.67
21574;BME280;10948;48.706;9.258;2022-08-11T15:39:21;97844.13;;;30.01;30.68
21574;BME280;10948;48.706;9.258;2022-08-11T15:41:53;97841.75;;;29.54;30.78
21574;BME280;10948;48.706;9.258;2022-08-11T15:44:41;97840.03;;;29.86;30.36
21574;BME280;10948;48.706;9.258;2022-08-11T15:47:26;97850.81;;;29.34;31.62
21574;BME280;10948;48.706;9.258;2022-08-11T15:49:53;97840.91;;;29.54;31.99
21574;BME280;10948;48.706;9.258;2022-08-11T15:52:21;97838.84;;;29.30;32.14
21574;BME280;10948;48.706;9.258;2022-08-11T15:54:47;97837.81;;;29.18;31.82
21574;BME280;10948;48.706;9.258;2022-08-11T15:57:14;97830.19;;;29.34;32.22
21574;BME280;10948;48.706;9.258;2022-08-11T16:00:00;97838.41;;;29.46;31.65
21574;BME280;10948;48.706;9.258;2022-08-11T16:02:44;97836.13;;;29.43;32.80
21574;BME280;10948;48.706;9.258;2022-08-11T16:05:31;97845.44;;;29.01;33.13
21574;BME280;10948;48.706;9.258;2022-08-11T16:07:57;97838.59;;;28.86;32.63
21574;BME280;10948;48.706;9.258;2022-08-11T16:10:23;97837.38;;;28.95;32.62
21574;BME280;10948;48.706;9.258;2022-08-11T16:12:51;97843.38;;;28.97;32.96
21574;BME280;10948;48.706;9.258;2022-08-11T16:15:46;97842.69;;;28.82;33.07
21574;BME280;10948;48.706;9.258;2022-08-11T16:21:17;97832.81;;;28.89;33.20
21574;BME280;10948;48.706;9.258;2022-08-11T16:23:44;97833.00;;;28.81;32.59
21574;BME280;10948;48.706;9.258;2022-08-11T16:26:10;97825.19;;;28.73;33.44
21574;BME280;10948;48.706;9.258;2022-08-11T16:28:37;97818.13;;;28.65;33.32
21574;BME280;10948;48.706;9.258;2022-08-11T16:31:04;97823.09;;;28.62;33.68
21574;BME280;10948;48.706;9.258;2022-08-11T16:33:34;97818.19;;;28.85;33.43
21574;BME280;10948;48.706;9.258;2022-08-11T16:36:00;97818.34;;;28.77;33.58
21574;BME280;10948;48.706;9.258;2022-08-11T16:38:46;97816.50;;;28.77;33.24
21574;BME280;10948;48.706;9.258;2022-08-11T16:41:12;97814.47;;;28.73;33.19
21574;BME280;10948;48.706;9.258;2022-08-11T16:43:40;97818.16;;;28.72;32.94
21574;BME280;10948;48.706;9.258;2022-08-11T16:46:24;97810.34;;;28.64;33.54
21574;BME280;10948;48.706;9.258;2022-08-11T16:49:19;97816.06;;;28.61;33.79
21574;BME280;10948;48.706;9.258;2022-08-11T16:51:45;97821.84;;;28.58;33.70
21574;BME280;10948;48.706;9.258;2022-08-11T16:54:11;97820.59;;;28.47;33.66
21574;BME280;10948;48.706;9.258;2022-08-11T16:56:46;97826.75;;;28.48;33.71